Time;durP1;ratioP1;P1;durP2;ratioP2;P2;SDS_P1;SDS_P2;PMS_P1;PMS_P2;Temp;Humidity;BMP_temperature;BMP_pressure;BME280_temperature;BME280_humidity;BME280_pressure;Samples;Min_cycle;Max_cycle;Signal;HPM_P1;HPM_P2
2023/08/12 00:00:12;;;;;;;3.63;1.20;;;;;;;25.09;65.67;101103.25;10451354;27;96825;-72
2023/08/12 00:05:15;;;;;;;3.30;1.40;;;;;;;25.05;66.06;101095.59;10462157;27;96778;-72
2023/08/12 00:10:18;;;;;;;2.72;2.03;;;;;;;25.03;65.82;101090.34;10462363;27;96695;-72
2023/08/12 00:15:23;;;;;;;3.60;1.47;;;;;;;25.02;66.07;101087.78;10457184;27;96792;-72
2023/08/12 00:20:27;;;;;;;3.00;1.13;;;;;;;25.00;66.11;101082.50;10460492;27;96826;-72
2023/08/12 00:25:30;;;;;;;1.93;1.30;;;;;;;24.86;66.29;101081.97;10461259;27;97194;-72
2023/08/12 00:30:35;;;;;;;1.93;1.23;;;;;;;24.82;66.47;101075.97;10436081;27;97287;-72
2023/08/12 00:35:38;;;;;;;2.72;1.23;;;;;;;24.80;66.44;101069.88;10461086;27;97191;-72
2023/08/12 00:40:41;;;;;;;6.13;1.47;;;;;;;25.01;65.93;101077.97;10459965;27;96744;-72
2023/08/12 00:45:46;;;;;;;2.73;1.23;;;;;;;25.07;65.70;101067.50;10458359;27;96943;-72
2023/08/12 00:50:49;;;;;;;2.08;1.13;;;;;;;25.00;65.56;101062.81;10460320;27;96803;-72
2023/08/12 00:55:53;;;;;;;2.70;1.37;;;;;;;24.75;66.63;101064.88;10459021;27;97203;-72
2023/08/12 01:00:58;;;;;;;3.97;1.30;;;;;;;24.69;66.80;101045.69;10456614;27;96988;-72
2023/08/12 01:06:01;;;;;;;2.85;1.52;;;;;;;24.60;66.81;101047.34;10447393;27;96850;-72
2023/08/12 01:11:12;;;;;;;2.47;1.97;;;;;;;24.43;67.40;101042.53;10456054;27;97627;-72
2023/08/12 01:16:19;;;;;;;3.17;1.40;;;;;;;24.63;66.84;101041.72;10455089;27;97424;-72
2023/08/12 01:21:25;;;;;;;3.85;1.63;;;;;;;24.53;66.80;101037.25;10445125;27;96911;-72
2023/08/12 01:26:30;;;;;;;2.60;1.30;;;;;;;24.49;66.98;101038.47;10455334;27;97722;-72
2023/08/12 01:31:41;;;;;;;3.60;1.40;;;;;;;24.57;66.57;101031.47;10456002;27;99327;-72
2023/08/12 01:36:48;;;;;;;3.75;1.30;;;;;;;24.51;66.67;101029.31;10443919;27;98455;-72
2023/08/12 01:41:55;;;;;;;2.30;1.30;;;;;;;24.42;66.97;101018.44;10455214;27;96786;-72
2023/08/12 01:46:58;;;;;;;3.45;1.30;;;;;;;23.99;68.28;101013.09;10455244;27;98759;-72
2023/08/12 01:52:02;;;;;;;2.00;1.43;;;;;;;24.14;67.81;101011.81;10458148;27;96740;-72
2023/08/12 01:57:07;;;;;;;3.23;1.47;;;;;;;24.27;67.34;101007.09;10452905;27;97074;-72
2023/08/12 02:02:12;;;;;;;2.40;1.30;;;;;;;24.16;68.14;101009.88;10455803;27;96802;-72
2023/08/12 02:07:15;;;;;;;4.45;1.50;;;;;;;24.39;67.23;101006.09;10453199;27;96868;-72
2023/08/12 02:12:20;;;;;;;3.63;1.20;;;;;;;24.48;66.81;100997.25;10449591;27;96918;-72
2023/08/12 02:17:23;;;;;;;2.30;1.30;;;;;;;24.48;66.92;101004.50;10454050;27;98941;-72
2023/08/12 02:22:26;;;;;;;2.67;1.40;;;;;;;24.58;66.83;100994.63;10452151;27;97177;-72
2023/08/12 02:27:31;;;;;;;3.00;1.60;;;;;;;24.50;67.25;100987.22;10448982;27;96872;-72
2023/08/12 02:32:34;;;;;;;2.42;1.25;;;;;;;24.63;67.05;100979.81;10454981;27;97100;-72
2023/08/12 02:37:38;;;;;;;4.37;1.67;;;;;;;24.72;67.02;100964.69;10462583;27;98480;-72
2023/08/12 02:42:42;;;;;;;1.80;1.40;;;;;;;24.73;67.35;100974.47;10469060;27;96919;-72
2023/08/12 02:47:46;;;;;;;3.30;1.38;;;;;;;24.77;67.57;100967.84;10463859;27;98779;-72
2023/08/12 02:52:49;;;;;;;2.50;1.40;;;;;;;24.75;67.64;100959.91;10467084;27;96965;-72
2023/08/12 02:57:54;;;;;;;2.43;1.50;;;;;;;24.75;67.60;100964.41;10468673;27;96765;-72
2023/08/12 03:02:57;;;;;;;3.08;1.33;;;;;;;24.81;67.34;100962.03;10458754;27;96859;-72
2023/08/12 03:08:03;;;;;;;3.28;1.70;;;;;;;24.86;67.45;100963.47;10466338;27;98854;-72
2023/08/12 03:13:08;;;;;;;2.80;1.40;;;;;;;24.84;67.45;100956.38;10467941;27;97160;-72
2023/08/12 03:18:11;;;;;;;4.82;1.55;;;;;;;24.83;67.68;100968.16;10461641;27;97840;-72
2023/08/12 03:23:15;;;;;;;3.57;1.50;;;;;;;24.84;67.58;100955.53;10467206;27;96742;-72
2023/08/12 03:28:20;;;;;;;2.78;1.63;;;;;;;24.99;67.31;100947.94;10466765;27;96857;-72
2023/08/12 03:33:23;;;;;;;4.43;1.55;;;;;;;25.02;67.17;100961.19;10462635;27;96893;-72
2023/08/12 03:38:27;;;;;;;4.32;1.73;;;;;;;25.04;67.38;100951.09;10444212;27;97058;-72
2023/08/12 03:43:33;;;;;;;3.07;1.60;;;;;;;25.06;67.21;100941.91;10475323;27;97188;-72
2023/08/12 03:48:36;;;;;;;2.85;1.50;;;;;;;25.02;67.47;100940.47;10463444;27;96852;-72
2023/08/12 03:53:41;;;;;;;2.05;1.27;;;;;;;25.03;67.31;100942.19;10460514;27;96822;-72
2023/08/12 03:58:45;;;;;;;2.40;1.57;;;;;;;24.90;67.90;100956.81;10458987;27;97140;-72
2023/08/12 04:03:49;;;;;;;4.10;1.65;;;;;;;24.91;67.84;100953.16;10452698;27;96859;-72
2023/08/12 04:08:52;;;;;;;2.33;1.47;;;;;;;24.94;67.84;100950.19;10449870;27;96865;-72
2023/08/12 04:13:57;;;;;;;4.67;1.60;;;;;;;24.93;67.67;100946.63;10458620;27;96752;-72
2023/08/12 04:19:00;;;;;;;2.85;1.70;;;;;;;24.88;67.72;100946.19;10458837;27;97054;-72
2023/08/12 04:24:04;;;;;;;2.17;1.70;;;;;;;24.79;67.72;100945.16;10455343;27;98891;-72
2023/08/12 04:29:09;;;;;;;2.88;1.65;;;;;;;24.75;67.91;100935.66;10454930;27;96843;-72
2023/08/12 04:34:12;;;;;;;2.00;1.70;;;;;;;24.71;68.08;100938.75;10457027;27;96865;-72
2023/08/12 04:39:15;;;;;;;2.33;1.60;;;;;;;24.74;68.08;100936.63;10457122;27;98674;-72
2023/08/12 04:44:20;;;;;;;3.00;1.70;;;;;;;24.83;67.88;100929.59;10459301;27;96870;-72
2023/08/12 04:49:23;;;;;;;3.78;2.08;;;;;;;24.81;67.99;100931.56;10459818;27;96721;-72
2023/08/12 04:54:26;;;;;;;3.50;1.90;;;;;;;24.91;67.65;100934.31;10457479;27;96900;-72
2023/08/12 04:59:31;;;;;;;4.87;1.83;;;;;;;24.92;67.45;100926.09;10454769;27;96840;-72
2023/08/12 05:04:34;;;;;;;2.70;1.80;;;;;;;24.83;67.83;100934.97;10456018;27;96984;-72
2023/08/12 05:09:37;;;;;;;2.53;1.43;;;;;;;24.77;67.99;100930.16;10456705;27;97068;-72
2023/08/12 05:14:42;;;;;;;3.73;1.93;;;;;;;24.85;67.89;100924.94;10452704;27;98600;-72
2023/08/12 05:19:46;;;;;;;4.90;2.28;;;;;;;24.90;67.68;100927.19;10451864;27;98818;-72
2023/08/12 05:24:49;;;;;;;3.60;2.10;;;;;;;24.97;67.36;100931.06;10456231;27;96887;-73
2023/08/12 05:29:53;;;;;;;3.53;1.77;;;;;;;24.92;67.80;100930.63;10454488;27;96881;-73
2023/08/12 05:34:57;;;;;;;2.20;1.67;;;;;;;24.83;67.80;100941.22;10445929;27;96918;-72
2023/08/12 05:40:00;;;;;;;2.47;1.57;;;;;;;24.89;67.74;100930.91;10450202;27;99042;-73
2023/08/12 05:45:06;;;;;;;2.88;1.70;;;;;;;24.63;68.22;100935.88;10454741;27;96814;-73
2023/08/12 05:50:11;;;;;;;4.00;1.98;;;;;;;24.59;68.38;100937.97;10446535;27;96911;-72
2023/08/12 05:55:14;;;;;;;3.50;2.10;;;;;;;24.47;68.57;100939.03;10444754;27;97071;-73
2023/08/12 06:00:18;;;;;;;3.67;1.77;;;;;;;24.50;68.22;100948.66;10454822;27;98714;-72
2023/08/12 06:05:22;;;;;;;2.75;1.65;;;;;;;24.35;68.77;100964.31;10451472;27;96806;-72
2023/08/12 06:10:25;;;;;;;3.47;1.70;;;;;;;24.44;68.25;100968.91;10450102;27;96844;-73
2023/08/12 06:15:30;;;;;;;2.97;1.80;;;;;;;24.56;67.95;100965.16;10457098;27;96958;-74
2023/08/12 06:20:33;;;;;;;3.10;1.65;;;;;;;24.54;67.86;100969.81;10456985;27;96947;-74
2023/08/12 06:25:37;;;;;;;3.20;1.80;;;;;;;24.65;67.66;100969.72;10452611;27;96993;-75
2023/08/12 06:30:45;;;;;;;3.00;1.53;;;;;;;24.71;67.29;100979.13;10467008;27;96994;-74
2023/08/12 06:35:48;;;;;;;2.35;1.50;;;;;;;24.76;67.27;100982.25;10461311;27;96703;-74
2023/08/12 06:40:53;;;;;;;3.35;1.33;;;;;;;24.88;66.93;100985.75;10414331;27;96679;-74
2023/08/12 06:45:58;;;;;;;2.80;1.40;;;;;;;24.95;66.48;100976.16;10417955;27;96934;-74
2023/08/12 06:51:06;;;;;;;2.92;1.60;;;;;;;25.08;66.29;100982.19;10456496;27;96643;-74
2023/08/12 06:56:10;;;;;;;2.53;1.30;;;;;;;25.15;65.75;100984.22;10474749;27;96838;-74
2023/08/12 07:01:14;;;;;;;2.53;1.52;;;;;;;24.96;66.00;100983.22;10446679;27;97114;-74
2023/08/12 07:06:19;;;;;;;2.60;1.60;;;;;;;24.80;66.13;100979.19;10414842;28;96641;-74
2023/08/12 07:11:22;;;;;;;1.58;1.48;;;;;;;24.94;65.97;100979.81;10449044;27;96813;-75
2023/08/12 07:16:27;;;;;;;2.23;1.40;;;;;;;25.11;65.45;100981.91;10455641;27;96819;-74
2023/08/12 07:21:30;;;;;;;2.85;1.23;;;;;;;25.21;64.96;100975.56;10456990;27;96820;-75
2023/08/12 07:26:33;;;;;;;1.50;1.20;;;;;;;25.08;65.22;100976.78;10462609;27;97111;-75
2023/08/12 07:31:38;;;;;;;1.93;1.30;;;;;;;25.03;65.36;100976.34;10461885;27;97433;-74
2023/08/12 07:36:42;;;;;;;3.58;1.52;;;;;;;25.13;65.11;100983.50;10459201;27;98600;-75
2023/08/12 07:41:45;;;;;;;3.00;1.67;;;;;;;25.22;64.59;100977.28;10462336;27;96688;-75
2023/08/12 07:46:50;;;;;;;3.53;1.70;;;;;;;25.45;63.79;100975.25;10469773;27;97415;-74
2023/08/12 07:51:53;;;;;;;2.13;1.60;;;;;;;25.94;62.33;100983.28;10478438;27;96857;-73
2023/08/12 07:56:56;;;;;;;3.60;1.90;;;;;;;26.39;61.30;100980.88;10461270;27;96819;-73
2023/08/12 08:02:01;;;;;;;1.90;1.03;;;;;;;26.33;61.36;100974.22;10457388;27;96952;-74
2023/08/12 08:07:04;;;;;;;2.67;1.80;;;;;;;26.25;61.69;100968.66;10456568;27;96819;-74
2023/08/12 08:12:09;;;;;;;2.05;1.80;;;;;;;26.38;61.04;100966.56;10454429;27;96747;-74
2023/08/12 08:17:13;;;;;;;2.22;1.45;;;;;;;26.73;60.51;100966.75;10436480;27;97063;-74
2023/08/12 08:22:17;;;;;;;3.30;1.40;;;;;;;26.96;59.95;100978.06;10449598;27;96852;-73
2023/08/12 08:27:21;;;;;;;2.95;1.80;;;;;;;27.77;58.25;100969.19;10445771;27;97009;-73
2023/08/12 08:32:25;;;;;;;3.63;1.63;;;;;;;27.53;58.08;100967.00;10458466;27;96790;-73
2023/08/12 08:37:29;;;;;;;2.35;1.35;;;;;;;27.89;56.89;100960.66;10459951;27;96901;-74
2023/08/12 08:42:32;;;;;;;2.90;1.65;;;;;;;28.36;55.56;100963.16;10443548;27;98663;-73
2023/08/12 08:47:37;;;;;;;3.97;1.75;;;;;;;28.74;54.07;100960.06;10433602;27;96861;-74
2023/08/12 08:52:43;;;;;;;4.07;1.80;;;;;;;29.13;53.07;100956.75;10454047;27;98758;-74
2023/08/12 08:57:46;;;;;;;1.90;1.45;;;;;;;29.31;52.37;100959.38;10436584;27;96646;-74
2023/08/12 09:02:52;;;;;;;2.92;1.40;;;;;;;29.41;50.92;100960.06;10438232;27;96991;-75
2023/08/12 09:07:56;;;;;;;2.38;1.35;;;;;;;29.41;49.99;100954.66;10455008;27;96841;-75
2023/08/12 09:12:59;;;;;;;2.13;1.20;;;;;;;29.66;49.36;100958.31;10459082;27;96943;-75
2023/08/12 09:18:06;;;;;;;2.33;1.23;;;;;;;30.13;48.18;100954.84;10458881;27;96772;-75
2023/08/12 09:23:10;;;;;;;1.25;1.10;;;;;;;30.40;47.62;100964.53;10457653;27;98257;-75
2023/08/12 09:28:14;;;;;;;3.17;1.40;;;;;;;30.54;46.80;100963.00;10459652;27;96701;-75
2023/08/12 09:33:25;;;;;;;1.85;1.27;;;;;;;30.76;45.72;100959.59;10443412;27;96798;-76
2023/08/12 09:38:29;;;;;;;2.10;1.52;;;;;;;30.87;45.39;100957.34;10417240;28;96858;-76
2023/08/12 09:43:33;;;;;;;1.73;1.10;;;;;;;31.22;44.35;100951.44;10416324;28;96688;-75
2023/08/12 09:48:38;;;;;;;2.35;1.40;;;;;;;31.09;44.43;100951.19;10416946;27;97180;-76
2023/08/12 09:53:43;;;;;;;1.45;1.20;;;;;;;31.10;43.88;100949.28;10416932;28;96662;-76
2023/08/12 09:58:49;;;;;;;2.83;1.48;;;;;;;30.46;44.92;100947.53;10416879;28;97028;-75
2023/08/12 10:03:55;;;;;;;1.95;1.27;;;;;;;30.83;44.75;100939.72;10415597;28;96712;-76
2023/08/12 10:08:59;;;;;;;1.52;1.10;;;;;;;30.84;44.30;100941.38;10418097;27;96658;-75
2023/08/12 10:14:05;;;;;;;2.53;1.45;;;;;;;30.91;43.89;100933.38;10457969;27;96834;-75
2023/08/12 10:19:12;;;;;;;1.38;1.13;;;;;;;31.06;43.06;100929.75;10457934;27;97014;-76
2023/08/12 10:24:18;;;;;;;1.60;1.30;;;;;;;31.17;43.16;100929.38;10457541;27;97001;-75
2023/08/12 10:29:21;;;;;;;1.75;1.35;;;;;;;31.26;43.18;100925.63;10457488;27;96764;-76
2023/08/12 10:34:26;;;;;;;2.22;1.60;;;;;;;31.21;42.87;100928.00;10457878;27;96976;-76
2023/08/12 10:39:32;;;;;;;2.05;1.38;;;;;;;31.18;43.23;100925.63;10457250;27;96995;-75
2023/08/12 10:44:41;;;;;;;3.13;1.38;;;;;;;31.07;43.51;100926.03;10457103;27;96922;-76
2023/08/12 10:49:50;;;;;;;1.73;1.20;;;;;;;31.34;42.50;100920.16;10456780;27;96779;-75
2023/08/12 10:54:54;;;;;;;1.63;1.27;;;;;;;31.29;43.04;100919.84;10456191;27;96771;-76
2023/08/12 10:59:58;;;;;;;1.35;1.10;;;;;;;31.20;42.47;100914.56;10463714;27;96683;-76
2023/08/12 11:05:05;;;;;;;1.35;1.10;;;;;;;31.09;42.51;100920.41;10463511;27;96776;-75
2023/08/12 11:10:12;;;;;;;2.15;1.27;;;;;;;30.74;42.11;100915.44;10464188;27;96674;-76
2023/08/12 11:15:16;;;;;;;1.70;1.40;;;;;;;31.21;41.82;100908.13;10463163;27;97114;-76
2023/08/12 11:20:21;;;;;;;3.70;1.45;;;;;;;30.97;41.26;100906.38;10433681;22;96808;-75
2023/08/12 11:25:25;;;;;;;1.40;1.10;;;;;;;31.35;40.95;100901.97;10421454;28;96963;-75
2023/08/12 11:30:29;;;;;;;2.25;1.48;;;;;;;31.15;40.84;100906.09;10422058;28;96721;-76
2023/08/12 11:35:36;;;;;;;1.60;1.23;;;;;;;31.19;39.57;100897.41;10379868;28;96663;-76
2023/08/12 11:40:41;;;;;;;1.85;1.17;;;;;;;31.35;40.44;100885.63;10379528;28;96891;-75
2023/08/12 11:45:44;;;;;;;1.75;1.15;;;;;;;31.64;39.51;100888.50;10378427;28;96683;-75
2023/08/12 11:50:49;;;;;;;2.10;1.13;;;;;;;31.93;39.12;100887.81;10379621;28;96859;-75
2023/08/12 11:55:52;;;;;;;1.08;0.90;;;;;;;31.74;38.83;100889.09;10379254;28;96721;-75
2023/08/12 12:00:56;;;;;;;1.75;1.25;;;;;;;32.07;38.52;100878.84;10378772;28;96779;-75
2023/08/12 12:06:01;;;;;;;1.80;1.10;;;;;;;32.11;38.78;100888.34;10379257;28;96705;-76
2023/08/12 12:11:05;;;;;;;2.42;1.48;;;;;;;31.94;40.07;100876.75;10396223;28;96821;-75
2023/08/12 12:16:11;;;;;;;2.20;1.50;;;;;;;32.36;39.90;100879.78;10419657;28;96671;-76
2023/08/12 12:21:22;;;;;;;1.45;1.30;;;;;;;32.11;37.80;100880.16;10420066;28;96775;-75
2023/08/12 12:26:26;;;;;;;2.03;1.30;;;;;;;32.02;39.12;100870.38;10419551;28;96587;-75
2023/08/12 12:31:29;;;;;;;1.75;1.23;;;;;;;31.98;38.99;100866.34;10419550;28;96771;-76
2023/08/12 12:36:36;;;;;;;2.95;1.33;;;;;;;32.30;39.44;100864.16;10412636;28;97754;-83
2023/08/12 12:41:39;;;;;;;1.38;1.25;;;;;;;32.41;38.61;100854.72;10416405;28;96695;-78
2023/08/12 12:46:42;;;;;;;1.83;1.17;;;;;;;32.59;38.96;100857.91;10410217;28;97916;-76
2023/08/12 12:51:47;;;;;;;1.45;1.15;;;;;;;32.54;38.60;100857.63;10415244;28;98121;-76
2023/08/12 12:56:50;;;;;;;1.45;1.15;;;;;;;32.20;38.44;100840.94;10409894;27;96833;-76
2023/08/12 13:01:54;;;;;;;4.15;2.60;;;;;;;32.52;37.92;100840.63;10405384;27;98666;-76
2023/08/12 13:06:58;;;;;;;1.98;1.27;;;;;;;32.63;37.83;100840.16;10413157;28;97682;-76
2023/08/12 13:12:02;;;;;;;2.33;1.45;;;;;;;32.21;37.41;100839.88;10412185;28;99563;-76
2023/08/12 13:17:05;;;;;;;3.15;1.50;;;;;;;32.43;37.10;100839.84;10403709;28;96860;-76
2023/08/12 13:22:10;;;;;;;3.05;1.45;;;;;;;32.35;36.18;100828.19;10375014;28;96995;-76
2023/08/12 13:27:14;;;;;;;1.98;1.10;;;;;;;32.61;37.11;100825.84;10358540;28;96903;-76
2023/08/12 13:32:17;;;;;;;2.53;1.30;;;;;;;32.62;36.57;100822.09;10361995;28;96845;-77
2023/08/12 13:37:22;;;;;;;2.95;1.40;;;;;;;32.54;36.67;100821.34;10366659;28;97391;-76
2023/08/12 13:42:25;;;;;;;3.03;1.30;;;;;;;32.75;36.91;100816.84;10367811;28;96814;-76
2023/08/12 13:47:29;;;;;;;2.42;1.50;;;;;;;32.17;36.99;100816.81;10356567;28;98758;-76
2023/08/12 13:52:33;;;;;;;4.03;1.25;;;;;;;32.38;36.50;100817.78;10377426;28;96879;-77
2023/08/12 13:57:37;;;;;;;2.03;1.00;;;;;;;32.49;36.25;100808.28;10369316;28;98729;-77
2023/08/12 14:02:40;;;;;;;2.05;0.93;;;;;;;32.56;36.37;100803.78;10369097;28;96805;-77
2023/08/12 14:07:45;;;;;;;2.40;0.95;;;;;;;32.44;35.19;100808.00;10365421;28;97735;-77
2023/08/12 14:12:48;;;;;;;2.50;1.02;;;;;;;32.08;35.30;100799.66;10367701;28;98593;-77
2023/08/12 14:17:54;;;;;;;2.80;1.00;;;;;;;32.33;35.04;100789.38;10371980;27;97854;-77
2023/08/12 14:22:59;;;;;;;1.55;0.80;;;;;;;32.13;35.30;100802.72;10398952;28;96910;-77
2023/08/12 14:28:02;;;;;;;1.83;0.75;;;;;;;32.32;34.54;100791.25;10401564;27;96833;-77
2023/08/12 14:33:07;;;;;;;1.60;0.70;;;;;;;32.41;34.77;100786.59;10399054;27;96954;-77
2023/08/12 14:38:12;;;;;;;1.88;0.80;;;;;;;32.22;33.97;100790.66;10405178;27;96853;-76
2023/08/12 14:43:15;;;;;;;1.35;0.70;;;;;;;32.20;34.33;100772.84;10402947;27;97419;-76
2023/08/12 14:48:19;;;;;;;1.58;0.90;;;;;;;32.18;33.79;100783.06;10398200;27;98885;-76
2023/08/12 14:53:23;;;;;;;2.28;0.70;;;;;;;32.19;33.99;100765.69;10403962;27;98781;-76
2023/08/12 14:58:27;;;;;;;1.88;1.05;;;;;;;31.90;33.37;100768.38;10432167;27;98350;-76
2023/08/12 15:03:30;;;;;;;2.50;0.70;;;;;;;31.86;33.26;100758.91;10398565;27;97968;-85
2023/08/12 15:08:35;;;;;;;2.17;1.08;;;;;;;31.56;32.93;100755.22;10419112;27;98655;-85
2023/08/12 15:13:38;;;;;;;1.38;0.70;;;;;;;31.62;33.47;100751.75;10393413;27;97878;-85
2023/08/12 15:18:42;;;;;;;2.35;0.90;;;;;;;31.55;33.25;100749.94;10382280;28;96860;-85
2023/08/12 15:23:47;;;;;;;2.50;0.90;;;;;;;31.53;33.39;100746.59;10367554;28;96966;-85
2023/08/12 15:28:50;;;;;;;2.33;0.93;;;;;;;31.56;33.79;100741.63;10370303;28;96876;-86
2023/08/12 15:33:53;;;;;;;2.67;0.75;;;;;;;31.48;33.20;100727.25;10368734;28;96973;-85
2023/08/12 15:38:58;;;;;;;1.80;0.60;;;;;;;31.29;32.62;100736.72;10372604;28;97448;-83
2023/08/12 15:44:01;;;;;;;2.45;0.88;;;;;;;31.40;33.39;100740.91;10387363;27;98550;-84
2023/08/12 15:49:07;;;;;;;2.65;0.98;;;;;;;31.38;33.34;100732.94;10380390;28;96861;-88
2023/08/12 15:54:11;;;;;;;3.45;0.93;;;;;;;31.04;33.37;100724.34;10379149;28;96841;-88
2023/08/12 15:59:15;;;;;;;2.78;0.93;;;;;;;30.90;34.28;100722.38;10378872;28;98619;-90
2023/08/12 16:04:18;;;;;;;4.15;1.25;;;;;;;30.90;34.11;100708.78;10374689;28;97235;-89
2023/08/12 16:09:23;;;;;;;1.65;0.73;;;;;;;30.54;34.45;100705.72;10384915;28;99005;-88
2023/08/12 16:14:26;;;;;;;1.83;0.70;;;;;;;30.27;34.56;100698.06;10383076;28;98579;-88
2023/08/12 16:19:30;;;;;;;2.25;0.88;;;;;;;30.09;35.42;100692.84;10408556;27;96894;-89
2023/08/12 16:24:34;;;;;;;1.70;0.90;;;;;;;29.71;35.86;100699.03;10410024;28;97096;-90
2023/08/12 16:29:38;;;;;;;3.78;0.75;;;;;;;29.72;36.06;100697.16;10411483;28;98790;-89
2023/08/12 16:34:41;;;;;;;2.72;0.70;;;;;;;29.63;36.43;100692.78;10416605;28;96832;-88
2023/08/12 16:39:45;;;;;;;;;;;;;;;29.33;37.05;100688.84;10407864;28;97661;-89
2023/08/12 16:44:49;;;;;;;3.85;0.93;;;;;;;29.44;37.01;100690.38;10410163;28;98599;-91
2023/08/12 16:49:52;;;;;;;4.25;1.20;;;;;;;29.21;37.33;100681.25;10405170;28;97059;-86
2023/08/12 16:54:58;;;;;;;3.08;1.13;;;;;;;29.22;37.55;100677.53;10412661;27;97048;-89
2023/08/12 17:00:04;;;;;;;3.33;0.90;;;;;;;29.06;37.93;100676.50;10414188;27;96927;-84
2023/08/12 17:05:08;;;;;;;3.08;1.10;;;;;;;29.03;37.96;100685.00;10400363;27;98690;-90
2023/08/12 17:10:13;;;;;;;2.53;0.82;;;;;;;28.98;38.29;100683.78;10404457;28;98403;-86
2023/08/12 17:15:16;;;;;;;1.90;0.90;;;;;;;28.71;38.56;100684.03;10413133;27;96844;-90
2023/08/12 17:20:19;;;;;;;3.78;1.10;;;;;;;28.76;38.43;100679.81;10410951;28;98871;-90
2023/08/12 17:25:24;;;;;;;9.35;7.57;;;;;;;29.18;38.04;100679.72;10427886;27;96868;-87
2023/08/12 17:30:28;;;;;;;104.10;85.80;;;;;;;28.95;38.43;100674.13;10394085;28;96867;-89
2023/08/12 17:35:31;;;;;;;123.65;109.95;;;;;;;28.82;38.33;100672.88;10410431;28;96785;-88
2023/08/12 17:40:37;;;;;;;7.60;5.75;;;;;;;28.95;38.21;100679.53;10416719;27;96817;-86
2023/08/12 17:45:40;;;;;;;57.92;49.72;;;;;;;29.11;38.18;100671.44;10413148;28;96856;-86
2023/08/12 17:50:44;;;;;;;1986.90;988.38;;;;;;;29.16;38.32;100673.63;10416182;27;97584;-89
2023/08/12 17:55:49;;;;;;;729.67;580.25;;;;;;;28.71;38.69;100675.91;10405939;28;96887;-90
2023/08/12 18:00:52;;;;;;;1545.68;913.47;;;;;;;28.98;39.23;100671.06;10420984;28;96790;-86
2023/08/12 18:05:55;;;;;;;408.50;343.70;;;;;;;28.72;39.60;100675.72;10391366;28;96747;-90
2023/08/12 18:11:03;;;;;;;57.83;51.78;;;;;;;28.80;39.94;100678.47;10416930;28;96676;-92
2023/08/12 18:16:06;;;;;;;15.98;14.25;;;;;;;28.69;39.71;100678.78;10417712;27;97251;-89
2023/08/12 18:21:10;;;;;;;7.95;5.70;;;;;;;28.51;40.02;100683.50;10410697;28;96763;-87
2023/08/12 18:26:14;;;;;;;6.20;3.85;;;;;;;28.44;40.71;100676.19;10409361;28;96761;-90
2023/08/12 18:31:18;;;;;;;4.57;2.90;;;;;;;28.27;41.18;100674.41;10411788;28;96800;-88
2023/08/12 18:36:21;;;;;;;13.07;8.57;;;;;;;28.04;41.37;100676.84;10408641;28;96754;-87
2023/08/12 18:41:26;;;;;;;5.45;2.90;;;;;;;27.87;41.92;100677.78;10405484;28;96709;-89
2023/08/12 18:46:29;;;;;;;6.85;2.22;;;;;;;27.83;41.99;100689.91;10403527;28;96946;-86
2023/08/12 18:51:32;;;;;;;4.38;2.80;;;;;;;27.64;42.63;100684.69;10420726;28;96672;-87
2023/08/12 18:56:37;;;;;;;4.38;2.10;;;;;;;27.10;43.77;100685.78;10448219;27;97291;-88
2023/08/12 19:01:40;;;;;;;4.28;1.90;;;;;;;27.00;43.73;100693.09;10429426;27;97140;-87
2023/08/12 19:06:43;;;;;;;5.00;2.30;;;;;;;26.87;44.35;100690.78;10418478;28;97031;-90
2023/08/12 19:11:48;;;;;;;4.72;1.70;;;;;;;26.57;45.35;100691.16;10407557;28;97035;-88
2023/08/12 19:16:52;;;;;;;3.25;1.50;;;;;;;26.47;45.94;100695.72;10404224;27;97235;-87
2023/08/12 19:21:55;;;;;;;3.50;1.65;;;;;;;26.34;46.05;100691.66;10407285;27;97569;-83
2023/08/12 19:27:00;;;;;;;5.67;1.83;;;;;;;26.30;46.09;100693.81;10411637;28;97038;-89
2023/08/12 19:32:03;;;;;;;3.28;1.13;;;;;;;26.25;46.25;100693.41;10412542;28;98788;-85
2023/08/12 19:37:07;;;;;;;3.80;1.38;;;;;;;25.91;47.38;100705.78;10404002;28;98669;-84
2023/08/12 19:42:12;;;;;;;4.25;1.45;;;;;;;25.94;47.33;100708.19;10409837;27;97089;-82
2023/08/12 19:47:15;;;;;;;6.63;1.60;;;;;;;25.72;48.53;100708.53;10404527;27;97020;-83
2023/08/12 19:52:22;;;;;;;4.30;1.55;;;;;;;25.41;49.59;100710.56;10405471;27;97056;-83
2023/08/12 19:57:26;;;;;;;4.80;1.40;;;;;;;25.15;49.89;100713.97;10402489;27;97327;-83
2023/08/12 20:02:30;;;;;;;5.07;1.33;;;;;;;25.18;50.06;100725.31;10402913;27;96820;-78
2023/08/12 20:07:41;;;;;;;2.75;1.10;;;;;;;24.86;51.23;100732.78;10409545;27;96923;-77
2023/08/12 20:12:47;;;;;;;4.50;1.33;;;;;;;25.04;50.44;100735.66;10397314;28;96913;-78
2023/08/12 20:17:50;;;;;;;4.40;1.17;;;;;;;24.97;50.59;100742.56;10412289;27;96881;-78
2023/08/12 20:22:54;;;;;;;5.47;1.30;;;;;;;24.73;51.62;100745.66;10437226;27;97030;-77
2023/08/12 20:28:10;;;;;;;7.85;1.20;;;;;;;24.90;50.99;100747.66;10415504;27;96787;-78
2023/08/12 20:33:13;;;;;;;5.55;1.48;;;;;;;24.69;51.76;100753.16;10424414;27;97122;-78
2023/08/12 20:38:18;;;;;;;4.30;1.20;;;;;;;24.73;51.47;100768.03;10410952;27;96876;-78
2023/08/12 20:43:24;;;;;;;5.15;1.30;;;;;;;24.55;52.21;100755.41;10415896;27;96780;-78
2023/08/12 20:48:27;;;;;;;4.47;1.20;;;;;;;24.53;52.53;100760.06;10404450;27;97279;-78
2023/08/12 20:53:32;;;;;;;4.27;1.43;;;;;;;24.75;52.01;100768.75;10422862;27;96743;-77
2023/08/12 20:58:37;;;;;;;3.58;1.60;;;;;;;24.69;52.32;100771.13;10420590;27;96787;-78
2023/08/12 21:03:40;;;;;;;3.95;1.05;;;;;;;24.64;52.48;100778.78;10431441;27;96784;-77
2023/08/12 21:08:43;;;;;;;4.47;1.20;;;;;;;24.55;52.83;100774.22;10408666;27;96792;-78
2023/08/12 21:13:48;;;;;;;4.50;1.37;;;;;;;24.47;53.08;100780.28;10430325;27;96886;-78
2023/08/12 21:18:51;;;;;;;2.75;1.20;;;;;;;24.36;53.39;100776.84;10372314;28;100527;-78
2023/08/12 21:23:54;;;;;;;6.27;1.73;;;;;;;24.27;53.45;100765.00;10374802;28;96869;-78
2023/08/12 21:28:59;;;;;;;4.17;1.10;;;;;;;24.15;53.98;100768.78;10366758;28;96829;-78
2023/08/12 21:34:02;;;;;;;3.53;1.15;;;;;;;24.13;54.03;100761.84;10354590;28;97300;-78
2023/08/12 21:39:06;;;;;;;3.67;1.10;;;;;;;24.12;53.93;100752.91;10371607;28;97088;-77
2023/08/12 21:44:10;;;;;;;3.07;1.33;;;;;;;24.10;53.95;100752.19;10368878;28;97107;-78
2023/08/12 21:49:14;;;;;;;4.28;1.27;;;;;;;23.99;54.05;100754.97;10384332;28;98596;-77
2023/08/12 21:54:20;;;;;;;3.83;1.65;;;;;;;23.81;54.13;100747.63;10370271;28;98212;-77
2023/08/12 21:59:24;;;;;;;3.75;1.45;;;;;;;23.64;54.41;100749.09;10370901;28;97654;-77
2023/08/12 22:04:28;;;;;;;3.75;1.08;;;;;;;23.62;54.26;100751.94;10366384;28;96872;-77
2023/08/12 22:09:34;;;;;;;2.75;1.20;;;;;;;23.57;54.35;100759.53;10373599;28;97612;-77
2023/08/12 22:14:39;;;;;;;4.00;1.50;;;;;;;23.46;54.74;100764.06;10371905;28;97687;-77
2023/08/12 22:19:46;;;;;;;4.57;1.40;;;;;;;23.50;54.39;100762.84;10379234;28;98771;-77
2023/08/12 22:24:50;;;;;;;2.92;1.17;;;;;;;23.39;54.48;100755.69;10399845;28;97873;-77
2023/08/12 22:29:54;;;;;;;5.88;1.75;;;;;;;23.37;54.61;100746.06;10416276;27;96739;-77
2023/08/12 22:34:57;;;;;;;4.75;1.30;;;;;;;23.19;55.33;100742.22;10404107;28;97002;-77
2023/08/12 22:40:01;;;;;;;3.17;1.30;;;;;;;23.19;55.36;100748.47;10412446;28;96905;-78
2023/08/12 22:45:08;;;;;;;2.27;1.53;;;;;;;22.95;55.77;100742.44;10394343;28;97693;-78
2023/08/12 22:50:12;;;;;;;3.95;1.30;;;;;;;22.78;56.42;100739.44;10412387;28;96868;-78
2023/08/12 22:55:15;;;;;;;2.78;1.33;;;;;;;22.92;56.38;100739.16;10412109;28;96936;-78
2023/08/12 23:00:20;;;;;;;3.83;1.17;;;;;;;22.80;56.76;100740.19;10411616;28;96903;-78
2023/08/12 23:05:23;;;;;;;3.47;1.40;;;;;;;22.80;56.61;100735.66;10419619;28;96732;-78
2023/08/12 23:10:26;;;;;;;4.90;1.33;;;;;;;22.83;56.45;100731.88;10397767;28;97094;-78
2023/08/12 23:15:31;;;;;;;5.97;1.57;;;;;;;22.80;56.49;100735.66;10413051;28;96888;-78